createdAt,value
2017-07-07T00:02:05.413Z,3.37
2017-07-07T00:04:39.769Z,2.85
2017-07-07T00:07:14.153Z,3.10
2017-07-07T00:09:48.641Z,2.40
2017-07-07T00:12:23.165Z,2.10
2017-07-07T00:14:57.582Z,5.18
2017-07-07T00:17:32.102Z,4.97
2017-07-07T00:20:06.544Z,2.58
2017-07-07T00:22:41.039Z,2.83
2017-07-07T00:25:15.394Z,2.42
2017-07-07T00:27:49.897Z,4.37
2017-07-07T00:30:24.206Z,4.45
2017-07-07T00:32:58.697Z,3.08
2017-07-07T00:35:33.946Z,2.60
2017-07-07T00:38:08.377Z,3.00
2017-07-07T00:40:42.907Z,3.20
2017-07-07T00:43:17.318Z,2.92
2017-07-07T00:45:51.882Z,3.90
2017-07-07T00:48:26.362Z,3.67
2017-07-07T00:51:00.802Z,3.25
2017-07-07T00:53:35.222Z,5.55
2017-07-07T00:56:09.576Z,3.17
2017-07-07T00:58:44.116Z,5.22
2017-07-07T01:01:18.787Z,3.30
2017-07-07T01:03:53.135Z,3.70
2017-07-07T01:06:27.646Z,2.62
2017-07-07T01:09:02.116Z,3.47
2017-07-07T01:11:36.488Z,3.47
2017-07-07T01:14:10.946Z,3.80
2017-07-07T01:16:45.493Z,3.30
2017-07-07T01:19:19.913Z,4.20
2017-07-07T01:21:54.425Z,3.62
2017-07-07T01:24:28.862Z,5.15
2017-07-07T01:27:03.357Z,3.30
2017-07-07T01:29:37.778Z,5.70
2017-07-07T01:32:12.265Z,4.20
2017-07-07T01:34:46.733Z,4.35
2017-07-07T01:37:21.502Z,3.78
2017-07-07T01:39:55.955Z,5.25
2017-07-07T01:42:30.465Z,4.60
2017-07-07T01:45:04.985Z,3.97
2017-07-07T01:47:39.457Z,4.97
2017-07-07T01:50:13.993Z,4.12
2017-07-07T01:52:49.101Z,4.82
2017-07-07T01:55:23.497Z,6.25
2017-07-07T01:57:58.157Z,7.18
2017-07-07T02:00:32.505Z,6.93
2017-07-07T02:03:07.002Z,4.68
2017-07-07T02:05:41.489Z,5.35
2017-07-07T02:08:15.876Z,9.77
2017-07-07T02:10:50.325Z,6.87
2017-07-07T02:13:25.101Z,5.10
2017-07-07T02:15:59.590Z,4.25
2017-07-07T02:18:34.141Z,5.85
2017-07-07T02:21:09.330Z,7.53
2017-07-07T02:23:43.790Z,5.28
2017-07-07T02:26:18.255Z,4.60
2017-07-07T02:28:52.614Z,6.05
2017-07-07T02:31:27.154Z,6.07
2017-07-07T02:34:01.654Z,5.10
2017-07-07T02:36:36.319Z,10.88
2017-07-07T02:39:10.709Z,6.47
2017-07-07T02:41:45.133Z,5.00
2017-07-07T02:44:19.620Z,5.10
2017-07-07T02:46:54.058Z,5.32
2017-07-07T02:49:28.794Z,4.57
2017-07-07T02:52:03.182Z,5.60
2017-07-07T02:54:37.721Z,5.35
2017-07-07T02:57:12.128Z,5.05
2017-07-07T02:59:46.557Z,5.25
2017-07-07T03:02:21.063Z,6.37
2017-07-07T03:04:55.735Z,6.15
2017-07-07T03:07:30.198Z,7.30
2017-07-07T03:10:04.649Z,4.78
2017-07-07T03:12:39.229Z,5.80
2017-07-07T03:15:13.653Z,5.43
2017-07-07T03:17:48.217Z,6.82
2017-07-07T03:20:22.903Z,5.12
2017-07-07T03:22:57.376Z,12.57
2017-07-07T03:25:31.814Z,6.12
2017-07-07T03:28:06.181Z,8.35
2017-07-07T03:30:40.629Z,6.12
2017-07-07T03:33:15.206Z,6.30
2017-07-07T03:35:49.746Z,5.65
2017-07-07T03:38:24.283Z,7.22
2017-07-07T03:40:58.717Z,4.87
2017-07-07T03:43:33.141Z,5.75
2017-07-07T03:46:07.550Z,10.85
2017-07-07T03:48:42.310Z,6.10
2017-07-07T03:51:16.690Z,5.72
2017-07-07T03:53:51.106Z,6.82
2017-07-07T03:56:25.782Z,5.65
2017-07-07T03:59:00.291Z,5.72
2017-07-07T04:01:34.758Z,5.40
2017-07-07T04:04:09.326Z,5.60
2017-07-07T04:06:44.609Z,4.37
2017-07-07T04:09:19.993Z,5.95
2017-07-07T04:11:54.478Z,4.70
2017-07-07T04:14:29.062Z,6.10
2017-07-07T04:17:03.586Z,5.05
2017-07-07T04:19:37.912Z,8.15
2017-07-07T04:22:12.373Z,5.65
2017-07-07T04:24:46.705Z,5.43
2017-07-07T04:27:21.218Z,10.32
2017-07-07T04:29:55.754Z,6.55
2017-07-07T04:32:30.243Z,7.20
2017-07-07T04:35:04.605Z,6.00
2017-07-07T04:37:39.057Z,5.75
2017-07-07T04:40:13.562Z,5.80
2017-07-07T04:42:48.047Z,5.68
2017-07-07T04:45:22.493Z,7.12
2017-07-07T04:47:56.985Z,6.68
2017-07-07T04:50:31.401Z,5.85
2017-07-07T04:53:06.526Z,6.93
2017-07-07T04:55:42.206Z,8.50
2017-07-07T04:58:16.633Z,5.95
2017-07-07T05:00:51.290Z,7.28
2017-07-07T05:03:25.890Z,6.53
2017-07-07T05:06:00.353Z,6.20
2017-07-07T05:08:34.906Z,6.25
2017-07-07T05:11:09.419Z,5.90
2017-07-07T05:13:43.852Z,6.78
2017-07-07T05:16:18.330Z,7.18
2017-07-07T05:18:53.112Z,6.25
2017-07-07T05:21:27.462Z,5.20
2017-07-07T05:24:02.252Z,6.80
2017-07-07T05:26:36.766Z,6.40
2017-07-07T05:29:11.202Z,5.78
2017-07-07T05:31:45.530Z,6.75
2017-07-07T05:34:20.834Z,8.68
2017-07-07T05:36:55.142Z,11.10
2017-07-07T05:39:29.565Z,5.78
2017-07-07T05:42:03.972Z,4.85
2017-07-07T05:44:38.369Z,4.68
2017-07-07T05:47:12.977Z,5.53
2017-07-07T05:49:47.554Z,7.90
2017-07-07T05:52:22.294Z,6.03
2017-07-07T05:54:56.809Z,6.32
2017-07-07T05:57:31.937Z,6.00
2017-07-07T06:00:09.196Z,5.80
2017-07-07T06:02:43.046Z,11.02
2017-07-07T06:05:17.485Z,6.53
2017-07-07T06:07:52.767Z,5.43
2017-07-07T06:10:27.175Z,6.32
2017-07-07T06:13:02.328Z,6.40
2017-07-07T06:15:36.701Z,7.15
2017-07-07T06:18:10.712Z,9.45
2017-07-07T06:20:44.858Z,5.70
2017-07-07T06:23:19.296Z,4.95
2017-07-07T06:25:53.949Z,8.85
2017-07-07T06:28:28.462Z,5.32
2017-07-07T06:31:02.933Z,5.85
2017-07-07T06:33:38.093Z,6.55
2017-07-07T06:36:12.634Z,5.37
2017-07-07T06:38:47.945Z,5.25
2017-07-07T06:41:22.346Z,5.47
2017-07-07T06:43:57.722Z,4.40
2017-07-07T06:46:32.185Z,5.53
2017-07-07T06:49:06.787Z,5.60
2017-07-07T06:51:41.266Z,5.72
2017-07-07T06:54:15.605Z,5.70
2017-07-07T06:56:50.949Z,6.00
2017-07-07T06:59:25.469Z,5.22
2017-07-07T07:02:00.114Z,5.27
2017-07-07T07:04:35.410Z,6.53
2017-07-07T07:07:09.969Z,6.17
2017-07-07T07:09:45.310Z,5.93
2017-07-07T07:12:19.726Z,5.20
2017-07-07T07:14:54.244Z,5.68
2017-07-07T07:17:28.590Z,6.00
2017-07-07T07:20:03.305Z,6.17
2017-07-07T07:22:37.870Z,5.87
2017-07-07T07:25:12.494Z,4.93
2017-07-07T07:27:47.057Z,6.32
2017-07-07T07:30:21.471Z,5.53
2017-07-07T07:32:55.858Z,5.37
2017-07-07T07:35:30.225Z,5.43
2017-07-07T07:38:04.722Z,5.87
2017-07-07T07:40:39.138Z,6.00
2017-07-07T07:43:13.865Z,7.60
2017-07-07T07:45:48.389Z,5.67
2017-07-07T07:48:23.066Z,5.73
2017-07-07T07:50:57.533Z,5.67
2017-07-07T07:53:31.977Z,6.17
2017-07-07T07:56:06.490Z,5.90
2017-07-07T07:58:40.902Z,11.10
2017-07-07T08:01:16.016Z,5.90
2017-07-07T08:03:50.681Z,5.70
2017-07-07T08:06:25.191Z,5.97
2017-07-07T08:08:59.610Z,5.60
2017-07-07T08:11:33.965Z,6.17
2017-07-07T08:14:08.340Z,5.33
2017-07-07T08:16:43.590Z,6.67
2017-07-07T08:19:18.103Z,8.83
2017-07-07T08:21:52.532Z,6.23
2017-07-07T08:24:26.932Z,8.80
2017-07-07T08:27:01.353Z,6.47
2017-07-07T08:29:35.746Z,6.80
2017-07-07T08:32:10.125Z,6.17
2017-07-07T08:34:44.592Z,7.43
2017-07-07T08:37:19.066Z,5.90
2017-07-07T08:39:53.562Z,7.60
2017-07-07T08:42:27.983Z,6.80
2017-07-07T08:45:02.477Z,7.30
2017-07-07T08:47:36.942Z,6.90
2017-07-07T08:50:11.453Z,7.10
2017-07-07T08:52:45.787Z,6.80
2017-07-07T08:55:20.296Z,7.37
2017-07-07T08:57:54.725Z,8.60
2017-07-07T09:00:29.233Z,9.77
2017-07-07T09:03:04.499Z,8.47
2017-07-07T09:05:38.860Z,8.73
2017-07-07T09:08:13.301Z,7.67
2017-07-07T09:10:47.816Z,7.57
2017-07-07T09:13:22.201Z,8.17
2017-07-07T09:15:56.690Z,8.20
2017-07-07T09:18:31.193Z,8.50
2017-07-07T09:21:05.560Z,8.03
2017-07-07T09:23:39.905Z,9.50
2017-07-07T09:26:14.501Z,8.13
2017-07-07T09:28:49.662Z,10.57
2017-07-07T09:31:24.027Z,10.43
2017-07-07T09:33:58.502Z,7.73
2017-07-07T09:36:32.958Z,7.17
2017-07-07T09:39:08.250Z,7.97
2017-07-07T09:41:42.813Z,11.83
2017-07-07T09:44:17.749Z,7.77
2017-07-07T09:46:52.253Z,10.60
2017-07-07T09:49:26.742Z,7.80
2017-07-07T09:52:01.217Z,8.53
2017-07-07T09:54:35.709Z,8.53
2017-07-07T09:57:10.284Z,9.43
2017-07-07T09:59:44.771Z,12.47
2017-07-07T10:02:19.303Z,16.10
2017-07-07T10:04:54.169Z,15.10
2017-07-07T10:07:29.364Z,12.80
2017-07-07T10:10:03.790Z,15.73
2017-07-07T10:12:38.502Z,15.30
2017-07-07T10:15:12.881Z,15.60
2017-07-07T10:17:47.294Z,16.97
2017-07-07T10:20:22.577Z,15.70
2017-07-07T10:22:57.913Z,16.40
2017-07-07T10:25:32.297Z,15.10
2017-07-07T10:28:06.710Z,12.30
2017-07-07T10:30:41.134Z,15.00
2017-07-07T10:33:15.626Z,14.87
2017-07-07T10:35:50.134Z,14.63
2017-07-07T10:38:24.749Z,15.33
2017-07-07T10:40:59.265Z,15.60
2017-07-07T10:43:33.686Z,17.03
2017-07-07T10:46:08.177Z,15.07
2017-07-07T10:48:42.725Z,15.95
2017-07-07T10:51:17.119Z,16.07
2017-07-07T10:53:51.627Z,16.17
2017-07-07T10:56:26.869Z,17.83
2017-07-07T10:59:02.257Z,17.80
2017-07-07T11:01:36.642Z,18.07
2017-07-07T11:04:11.277Z,18.63
2017-07-07T11:06:46.398Z,17.07
2017-07-07T11:09:20.850Z,16.37
2017-07-07T11:11:55.230Z,16.10
2017-07-07T11:14:29.673Z,15.07
2017-07-07T11:17:04.229Z,17.33
2017-07-07T11:19:38.640Z,19.17
2017-07-07T11:22:13.185Z,18.77
2017-07-07T11:24:47.542Z,20.37
2017-07-07T11:27:21.988Z,18.80
2017-07-07T11:29:56.504Z,22.50
2017-07-07T11:32:30.952Z,20.27
2017-07-07T11:35:06.167Z,18.80
2017-07-07T11:37:40.680Z,15.60
2017-07-07T11:40:15.243Z,14.57
2017-07-07T11:42:49.818Z,12.13
2017-07-07T11:45:24.250Z,12.60
2017-07-07T11:47:58.770Z,10.50
2017-07-07T11:50:33.131Z,12.20
2017-07-07T11:53:07.667Z,9.63
2017-07-07T11:55:42.102Z,9.03
2017-07-07T11:58:16.637Z,9.27
2017-07-07T12:00:51.053Z,8.70
2017-07-07T12:03:25.570Z,8.13
2017-07-07T12:06:00.093Z,7.83
2017-07-07T12:08:34.448Z,8.00
2017-07-07T12:11:08.896Z,7.83
2017-07-07T12:13:43.361Z,7.10
2017-07-07T12:16:17.887Z,7.20
2017-07-07T12:18:52.292Z,7.57
2017-07-07T12:21:26.806Z,6.43
2017-07-07T12:24:01.399Z,6.87
2017-07-07T12:26:35.803Z,7.17
2017-07-07T12:29:10.222Z,6.30
2017-07-07T12:31:44.702Z,7.60
2017-07-07T12:34:19.225Z,6.67
2017-07-07T12:36:54.375Z,8.03
2017-07-07T12:39:28.801Z,8.40
2017-07-07T12:42:03.629Z,7.60
2017-07-07T12:44:37.993Z,7.53
2017-07-07T12:47:12.582Z,7.70
2017-07-07T12:49:47.222Z,6.90
2017-07-07T12:52:21.925Z,8.10
2017-07-07T12:54:56.289Z,9.37
2017-07-07T12:57:31.455Z,8.07
2017-07-07T13:00:06.021Z,7.30
2017-07-07T13:02:40.599Z,8.27
2017-07-07T13:05:15.019Z,8.30
2017-07-07T13:07:49.529Z,9.30
2017-07-07T13:10:23.899Z,7.27
2017-07-07T13:12:58.410Z,7.07
2017-07-07T13:15:32.942Z,7.00
2017-07-07T13:18:07.377Z,7.67
2017-07-07T13:20:41.882Z,10.40
2017-07-07T13:23:16.402Z,7.40
2017-07-07T13:25:51.028Z,6.43
2017-07-07T13:28:25.385Z,8.53
2017-07-07T13:30:59.889Z,7.60
2017-07-07T13:33:34.570Z,7.70
2017-07-07T13:36:09.072Z,6.57
2017-07-07T13:38:43.599Z,8.67
2017-07-07T13:41:18.139Z,8.30
2017-07-07T13:43:53.141Z,7.60
2017-07-07T13:46:27.498Z,7.53
2017-07-07T13:49:02.008Z,6.40
2017-07-07T13:51:36.326Z,7.57
2017-07-07T13:54:10.820Z,6.53
2017-07-07T13:56:45.178Z,7.47
2017-07-07T13:59:19.625Z,7.50
2017-07-07T14:01:54.808Z,7.47
2017-07-07T14:04:29.333Z,7.87
2017-07-07T14:07:03.636Z,7.03
2017-07-07T14:09:38.166Z,7.07
2017-07-07T14:12:12.829Z,7.03
2017-07-07T14:14:47.306Z,6.90
2017-07-07T14:17:21.709Z,7.00
2017-07-07T14:19:56.378Z,6.50
2017-07-07T14:22:31.609Z,6.30
2017-07-07T14:25:06.037Z,6.97
2017-07-07T14:27:40.409Z,7.67
2017-07-07T14:30:15.653Z,6.40
2017-07-07T14:32:50.230Z,7.33
2017-07-07T14:35:24.594Z,7.10
2017-07-07T14:37:59.146Z,7.53
2017-07-07T14:40:33.613Z,6.80
2017-07-07T14:43:08.146Z,8.07
2017-07-07T14:45:42.616Z,8.90
2017-07-07T14:48:17.026Z,7.23
2017-07-07T14:50:51.549Z,6.93
2017-07-07T14:53:25.989Z,7.53
2017-07-07T14:56:00.489Z,6.47
2017-07-07T14:58:34.891Z,6.07
2017-07-07T15:01:09.414Z,5.40
2017-07-07T15:03:44.562Z,5.63
2017-07-07T15:06:19.021Z,6.50
2017-07-07T15:08:53.573Z,5.47
2017-07-07T15:11:28.362Z,6.53
2017-07-07T15:14:03.639Z,6.43
2017-07-07T15:16:38.313Z,6.40
2017-07-07T15:19:12.814Z,5.67
2017-07-07T15:21:47.222Z,6.60
2017-07-07T15:24:21.978Z,5.80
2017-07-07T15:26:56.461Z,6.50
2017-07-07T15:29:30.798Z,7.47
2017-07-07T15:32:05.196Z,8.27
2017-07-07T15:34:39.633Z,5.70
2017-07-07T15:37:14.169Z,6.23
2017-07-07T15:39:49.613Z,5.80
2017-07-07T15:42:24.749Z,5.90
2017-07-07T15:44:59.878Z,7.53
2017-07-07T15:47:34.315Z,6.90
2017-07-07T15:53:12.530Z,7.70
2017-07-07T15:55:47.218Z,7.67
2017-07-07T15:58:21.777Z,6.93
2017-07-07T16:00:56.319Z,7.40
2017-07-07T16:03:30.925Z,7.43
2017-07-07T16:06:06.930Z,8.73
2017-07-07T16:08:42.976Z,6.87
2017-07-07T16:11:18.237Z,7.77
2017-07-07T16:16:56.769Z,6.10
2017-07-07T16:19:31.230Z,6.43
2017-07-07T16:22:05.562Z,7.30
2017-07-07T16:24:40.076Z,6.93
2017-07-07T16:27:14.490Z,8.20
2017-07-07T16:29:49.782Z,7.00
2017-07-07T16:32:24.357Z,6.93
2017-07-07T16:34:58.740Z,6.10
2017-07-07T16:37:33.905Z,6.13
2017-07-07T16:40:09.213Z,6.53
2017-07-07T16:42:44.893Z,8.73
2017-07-07T16:45:20.302Z,7.27
2017-07-07T16:47:54.957Z,6.40
2017-07-07T16:50:29.448Z,6.47
2017-07-07T16:53:03.894Z,6.80
2017-07-07T16:55:38.357Z,7.20
2017-07-07T16:58:12.735Z,5.57
2017-07-07T17:00:47.249Z,7.33
2017-07-07T17:03:21.761Z,6.80
2017-07-07T17:05:56.199Z,9.20
2017-07-07T17:08:30.714Z,7.13
2017-07-07T17:11:05.116Z,7.80
2017-07-07T17:13:39.797Z,7.97
2017-07-07T17:16:14.285Z,7.60
2017-07-07T17:18:48.918Z,7.83
2017-07-07T17:21:23.399Z,9.23
2017-07-07T17:23:57.746Z,9.50
2017-07-07T17:26:32.098Z,9.63
2017-07-07T17:29:06.445Z,9.30
2017-07-07T17:31:41.710Z,8.23
2017-07-07T17:34:16.289Z,8.47
2017-07-07T17:36:50.821Z,7.37
2017-07-07T17:39:25.286Z,7.50
2017-07-07T17:41:59.765Z,8.67
2017-07-07T17:44:34.373Z,7.90
2017-07-07T17:47:08.701Z,7.30
2017-07-07T17:49:43.342Z,7.20
2017-07-07T17:52:17.671Z,7.43
2017-07-07T17:54:52.001Z,8.50
2017-07-07T17:57:26.543Z,7.80
2017-07-07T18:00:01.058Z,6.90
2017-07-07T18:02:35.444Z,8.07
2017-07-07T18:05:09.869Z,8.03
2017-07-07T18:07:44.401Z,9.10
2017-07-07T18:10:18.829Z,8.93
2017-07-07T18:12:54.041Z,7.83
2017-07-07T18:15:28.573Z,8.93
2017-07-07T18:18:02.874Z,6.50
2017-07-07T18:20:37.547Z,6.40
2017-07-07T18:23:12.837Z,6.90
2017-07-07T18:25:47.387Z,6.43
2017-07-07T18:28:21.909Z,8.03
2017-07-07T18:30:56.399Z,8.13
2017-07-07T18:33:31.278Z,6.90
2017-07-07T18:36:05.618Z,6.30
2017-07-07T18:38:39.970Z,7.03
2017-07-07T18:41:14.629Z,6.80
2017-07-07T18:43:49.005Z,7.17
2017-07-07T18:46:23.581Z,7.30
2017-07-07T18:48:58.776Z,7.77
2017-07-07T18:51:33.444Z,7.40
2017-07-07T18:54:07.805Z,7.03
2017-07-07T18:56:42.224Z,6.50
2017-07-07T18:59:16.658Z,6.60
2017-07-07T19:01:51.091Z,6.10
2017-07-07T19:04:25.615Z,7.77
2017-07-07T19:06:59.982Z,7.30
2017-07-07T19:09:34.431Z,6.23
2017-07-07T19:12:09.093Z,7.87
2017-07-07T19:14:43.481Z,7.77
2017-07-07T19:17:17.951Z,7.67
2017-07-07T19:19:52.306Z,7.28
2017-07-07T19:22:27.689Z,8.18
2017-07-07T19:25:02.119Z,7.43
2017-07-07T19:27:36.492Z,9.03
2017-07-07T19:30:11.046Z,8.40
2017-07-07T19:32:45.492Z,7.90
2017-07-07T19:35:20.177Z,8.10
2017-07-07T19:37:54.929Z,9.63
2017-07-07T19:40:30.317Z,8.40
2017-07-07T19:43:05.149Z,7.17
2017-07-07T19:45:45.544Z,8.10
2017-07-07T19:48:19.982Z,8.50
2017-07-07T19:50:54.398Z,9.73
2017-07-07T19:53:29.025Z,11.00
2017-07-07T19:56:03.400Z,11.50
2017-07-07T19:58:37.910Z,12.45
2017-07-07T20:01:12.561Z,11.00
2017-07-07T20:03:47.635Z,11.43
2017-07-07T20:06:22.918Z,10.63
2017-07-07T20:08:57.493Z,11.48
2017-07-07T20:11:32.134Z,11.25
2017-07-07T20:14:06.893Z,11.98
2017-07-07T20:16:41.241Z,11.55
2017-07-07T20:19:15.701Z,11.63
2017-07-07T20:21:50.974Z,11.63
2017-07-07T20:24:25.447Z,12.10
2017-07-07T20:26:59.930Z,10.63
2017-07-07T20:29:34.682Z,12.13
2017-07-07T20:32:09.205Z,11.50
2017-07-07T20:34:43.832Z,11.75
2017-07-07T20:37:19.123Z,11.43
2017-07-07T20:39:53.689Z,12.32
2017-07-07T20:42:28.198Z,12.23
2017-07-07T20:45:03.137Z,11.00
2017-07-07T20:47:37.654Z,13.07
2017-07-07T20:50:12.070Z,11.85
2017-07-07T20:52:46.578Z,11.75
2017-07-07T20:55:21.178Z,12.20
2017-07-07T20:57:55.773Z,12.18
2017-07-07T21:00:30.399Z,13.13
2017-07-07T21:03:04.873Z,12.15
2017-07-07T21:05:39.522Z,13.73
2017-07-07T21:08:13.939Z,14.30
2017-07-07T21:10:48.553Z,15.43
2017-07-07T21:13:23.066Z,14.85
2017-07-07T21:15:57.523Z,15.00
2017-07-07T21:18:32.026Z,13.85
2017-07-07T21:21:06.565Z,14.93
2017-07-07T21:23:41.158Z,16.33
2017-07-07T21:26:15.807Z,13.80
2017-07-07T21:28:50.137Z,15.43
2017-07-07T21:31:24.739Z,16.08
2017-07-07T21:33:59.262Z,15.20
2017-07-07T21:36:34.593Z,14.70
2017-07-07T21:39:09.114Z,15.48
2017-07-07T21:41:43.537Z,15.88
2017-07-07T21:44:18.050Z,14.52
2017-07-07T21:46:52.793Z,14.82
2017-07-07T21:49:27.116Z,15.55
2017-07-07T21:52:01.630Z,16.50
2017-07-07T21:54:36.138Z,17.00
2017-07-07T21:57:10.561Z,17.15
2017-07-07T21:59:45.074Z,15.93
2017-07-07T22:02:19.709Z,16.08
2017-07-07T22:04:54.139Z,14.87
2017-07-07T22:07:28.850Z,16.02
2017-07-07T22:10:03.313Z,15.32
2017-07-07T22:12:38.002Z,14.98
2017-07-07T22:15:12.498Z,15.20
2017-07-07T22:17:46.833Z,15.52
2017-07-07T22:20:21.162Z,14.65
2017-07-07T22:22:55.707Z,15.32
2017-07-07T22:25:30.290Z,15.77
2017-07-07T22:28:04.921Z,15.73
2017-07-07T22:30:39.307Z,16.42
2017-07-07T22:33:13.978Z,15.25
2017-07-07T22:35:48.465Z,15.50
2017-07-07T22:38:23.009Z,15.50
2017-07-07T22:40:57.523Z,16.40
2017-07-07T22:43:32.142Z,16.08
2017-07-07T22:46:06.662Z,16.60
2017-07-07T22:48:41.962Z,16.12
2017-07-07T22:51:16.294Z,16.55
2017-07-07T22:53:50.853Z,16.75
2017-07-07T22:56:25.251Z,16.45
2017-07-07T22:58:59.725Z,17.65
2017-07-07T23:01:34.176Z,17.08
2017-07-07T23:04:08.857Z,17.12
2017-07-07T23:06:43.218Z,16.95
2017-07-07T23:09:17.591Z,16.75
2017-07-07T23:11:52.054Z,16.75
2017-07-07T23:14:26.458Z,17.45
2017-07-07T23:17:01.029Z,17.70
2017-07-07T23:19:35.670Z,18.67
2017-07-07T23:22:10.175Z,19.85
2017-07-07T23:24:44.580Z,18.40
2017-07-07T23:27:19.029Z,18.15
2017-07-07T23:29:53.462Z,19.52
2017-07-07T23:32:27.837Z,17.75
2017-07-07T23:35:02.285Z,17.85
2017-07-07T23:37:36.697Z,18.15
2017-07-07T23:40:11.331Z,19.52
2017-07-07T23:42:45.809Z,19.95
2017-07-07T23:45:20.674Z,20.37
2017-07-07T23:47:55.303Z,21.25
2017-07-07T23:50:29.921Z,19.83
2017-07-07T23:53:04.249Z,18.30
2017-07-07T23:55:38.807Z,20.20
2017-07-07T23:58:13.380Z,19.50
